الصفحة الرئيسية
METAR-TAF:

METAR-TAF

مطار :

ياكوتسك, روسيا

دائرة عرض: 62-01N, خط طول: 129-43E, ارتفاع: 103 متر

مراقبة الطقس الحالي

تاريخ ووقت الإصدار 27 دقيقة قبل الساعة 17:30UTC
ريح 4 عقدة من الشمال/الشمال الغربي
درجة الحرارة -8°درجة مئوية
الرطوبة 79%
ضغط 1007 hPa
الرؤية 10 كم أو أكثر
الغيوم لا تقل 1500 م ولا وجود لمزنة ركامية السحاب الأسود

METAR: UEEE 241730Z 33002MPS CAVOK M08/M11 Q1007 R23L/09//60 NOSIG RMK QFE746

زمن: 02:57 (17:57 UTC)

توقعات

تاريخ ووقت الإصدار 57 دقيقة قبل الساعة 17:00UTC
التوقعات صالحة من24 الساعة 18 UTC إلى 25 الساعة 24 UTC
ريح 6 عقدة من الشمال الغربي تتزايد حتى 19 عقدة
الرؤية 10 كم أو أكثر
غيوم متفرقة على ارتفاع 2000 قدم, مزنة ركامية.
ملبد بالغيوم على ارتفاع 7000 قدم
مؤقت
من 24 الساعة 18 UTC إلى 25 الساعة 03 UTC
الرؤية: 2100 متر
زخات ثلجية خفيفة

TAF: UEEE 241700Z 2418/2524 32003G10MPS 9999 SCT020CB OVC070 TEMPO 2418/2503 2100 -SHSN

أرصاد الطقس والتوقعات من أكثر من 4000 مطار (تقارير الطقس للمطار METAR والتنبؤ بالطقس بالمطارTAF).

المحطات المتاحة هي النقط الصفراء والحمراء على الخريطة.

حرك المؤشر فوق النقطة لمعرفة اسم المحطة.

ثم انقر لمعرفة أرصاد وتوقعات الطقس.

لتغيير الخارطة: اضغط على الأزرار الخضراء مع رمز الصليب الأسود للتكبير. على الزر الأخضر مع شرطة للتصغير، أو على الأسهم الخضراء للخرائط المجاورة.


METAR-TAF: